Time;durP1;ratioP1;P1;durP2;ratioP2;P2;SDS_P1;SDS_P2;PMS_P1;PMS_P2;Temp;Humidity;BMP_temperature;BMP_pressure;BME280_temperature;BME280_humidity;BME280_pressure;Samples;Min_cycle;Max_cycle;Signal;HPM_P1;HPM_P2
2023/01/05 00:02:16;;;;;;;23.43;17.90;;;;;;;8.94;100.00;148290.28;5073124;28;20196;-61
2023/01/05 00:04:43;;;;;;;22.57;19.13;;;;;;;8.93;100.00;148287.75;5072630;28;20201;-61
2023/01/05 00:07:10;;;;;;;22.93;18.93;;;;;;;8.96;100.00;148295.31;5072923;28;20588;-61
2023/01/05 00:09:37;;;;;;;22.97;18.83;;;;;;;8.83;100.00;144757.66;5072796;28;20199;-60
2023/01/05 00:23:07;;;;;;;23.97;18.10;;;;;;;8.85;100.00;116470.72;5072355;28;20181;-61
2023/01/05 00:25:38;;;;;;;26.17;18.30;;;;;;;8.88;100.00;114828.19;5072284;28;20212;-61
2023/01/05 00:28:07;;;;;;;21.47;17.90;;;;;;;8.74;100.00;112494.75;5072548;28;20256;-61
2023/01/05 00:30:38;;;;;;;26.97;18.70;;;;;;;8.90;100.00;111537.34;5054339;28;20185;-61
2023/01/05 00:33:08;;;;;;;33.43;19.13;;;;;;;8.90;100.00;108574.72;5072153;28;20587;-62
2023/01/05 00:35:35;;;;;;;29.20;18.80;;;;;;;8.79;100.00;105924.34;5072139;28;20275;-61
2023/01/05 00:38:01;;;;;;;22.10;18.00;;;;;;;8.74;100.00;103614.25;5072242;28;20584;-61
2023/01/05 00:40:28;;;;;;;20.37;17.97;;;;;;;8.79;100.00;102309.25;5071929;28;20212;-61
2023/01/05 00:42:55;;;;;;;24.00;17.10;;;;;;;8.74;100.00;100659.09;5071826;28;20216;-61
2023/01/05 00:45:23;;;;;;;24.33;17.77;;;;;;;8.78;100.00;97385.19;5072150;28;20228;-61
2023/01/05 00:47:52;;;;;;;26.30;17.83;;;;;;;8.77;100.00;94106.69;5071890;28;20193;-61
2023/01/05 00:50:20;;;;;;;26.40;18.23;;;;;;;8.61;100.00;91789.06;5071712;28;20181;-61
2023/01/05 00:52:47;;;;;;;22.07;17.90;;;;;;;8.90;100.00;91506.38;5072036;28;20646;-62
2023/01/05 00:55:14;;;;;;;22.77;17.80;;;;;;;8.94;100.00;94461.78;5071946;28;20257;-61
2023/01/05 00:57:41;;;;;;;24.40;19.00;;;;;;;8.94;100.00;96100.03;5071694;28;20228;-62
2023/01/05 01:00:12;;;;;;;27.73;18.87;;;;;;;8.94;100.00;95772.16;5071638;28;20189;-61
2023/01/05 01:02:41;;;;;;;25.23;19.30;;;;;;;8.91;100.00;93473.91;5071879;28;20268;-62
2023/01/05 01:05:08;;;;;;;27.07;17.70;;;;;;;9.06;100.00;92842.53;5071448;28;20208;-61
2023/01/05 01:07:35;;;;;;;24.43;19.50;;;;;;;9.07;100.00;96122.22;5071468;28;20193;-61
2023/01/05 01:10:02;;;;;;;35.63;17.57;;;;;;;9.19;100.00;97453.44;5071811;28;20181;-60
2023/01/05 01:12:29;;;;;;;22.67;18.77;;;;;;;9.24;100.00;97789.97;5071422;28;20191;-60
2023/01/05 01:14:56;;;;;;;19.40;17.37;;;;;;;9.31;100.00;97801.66;5071362;28;20181;-60
2023/01/05 01:17:23;;;;;;;20.13;18.13;;;;;;;9.37;100.00;100438.91;5071283;28;20192;-62
2023/01/05 01:19:51;;;;;;;20.57;18.33;;;;;;;9.41;100.00;102746.38;5071210;28;20177;-60
2023/01/05 01:22:18;;;;;;;25.07;17.40;;;;;;;9.37;100.00;104712.41;5070950;28;20184;-61
2023/01/05 01:24:45;;;;;;;19.07;17.07;;;;;;;9.27;100.00;103378.38;5071423;28;20220;-61
2023/01/05 01:27:12;;;;;;;20.70;17.30;;;;;;;9.22;100.00;97130.28;5071355;28;20574;-63
2023/01/05 01:29:39;;;;;;;24.70;17.83;;;;;;;9.25;100.00;92543.41;5071232;28;20196;-60
2023/01/05 01:32:07;;;;;;;27.47;18.57;;;;;;;9.22;100.00;90245.50;5071151;28;20185;-60
2023/01/05 01:34:33;;;;;;;25.47;17.53;;;;;;;9.32;100.00;92883.03;5071054;28;20262;-61
2023/01/05 01:37:02;;;;;;;19.40;17.23;;;;;;;9.42;100.00;97820.03;5071379;28;20544;-60
2023/01/05 01:39:29;;;;;;;20.03;17.90;;;;;;;9.35;100.00;103722.19;5071118;28;20276;-61
2023/01/05 01:41:55;;;;;;;40.60;18.50;;;;;;;9.27;100.00;103379.25;5071113;28;20192;-62
2023/01/05 01:44:50;;;;;;;34.17;18.30;;;;;;;9.28;100.00;102066.25;5071260;28;20689;-60
2023/01/05 01:47:22;;;;;;;33.80;18.43;;;;;;;9.18;100.00;94828.44;5061747;28;20211;-61
2023/01/05 01:49:50;;;;;;;27.40;19.53;;;;;;;9.17;100.00;89583.72;5053691;28;20189;-61
2023/01/05 01:52:20;;;;;;;27.33;18.53;;;;;;;9.19;100.00;90569.16;5071346;28;20185;-60
2023/01/05 01:54:49;;;;;;;21.20;17.60;;;;;;;9.18;100.00;89912.66;5071352;28;20563;-61
2023/01/05 01:57:16;;;;;;;22.10;18.10;;;;;;;9.08;100.00;88915.31;5070961;28;20188;-61
2023/01/05 01:59:43;;;;;;;20.30;17.20;;;;;;;9.18;100.00;85986.47;5071312;28;20567;-61
2023/01/05 02:02:12;;;;;;;20.13;16.87;;;;;;;9.17;100.00;85984.25;5070897;28;20192;-61
2023/01/05 02:04:40;;;;;;;20.83;18.00;;;;;;;9.20;100.00;85661.63;5070741;28;20258;-62
2023/01/05 02:07:10;;;;;;;20.43;18.27;;;;;;;9.20;100.00;86315.78;5071044;28;20189;-62
2023/01/05 02:09:38;;;;;;;18.97;16.97;;;;;;;9.31;100.00;88950.31;5070742;28;20250;-62
2023/01/05 02:12:18;;;;;;;19.20;17.13;;;;;;;9.34;100.00;90592.38;5071045;28;20220;-60
2023/01/05 02:14:53;;;;;;;19.33;17.47;;;;;;;9.24;100.00;92541.81;5071075;28;20618;-61
2023/01/05 02:17:32;;;;;;;19.30;17.37;;;;;;;9.27;100.00;92219.63;5070650;28;20191;-61
2023/01/05 02:20:28;;;;;;;18.60;16.67;;;;;;;9.23;100.00;88610.78;5071045;28;20555;-61
2023/01/05 02:23:31;;;;;;;19.57;17.30;;;;;;;9.21;100.00;85662.38;5070665;28;20250;-62
2023/01/05 02:26:42;;;;;;;22.63;18.13;;;;;;;9.25;100.00;86650.28;5070963;28;20558;-60
2023/01/05 02:29:36;;;;;;;19.77;17.67;;;;;;;9.18;100.00;84350.81;5057500;28;20203;-61
2023/01/05 02:32:11;;;;;;;19.90;16.77;;;;;;;9.23;100.00;82397.03;5037359;28;20238;-62
2023/01/05 02:34:47;;;;;;;18.93;16.67;;;;;;;9.11;100.00;82380.78;5074177;28;20231;-61
2023/01/05 02:37:18;;;;;;;20.43;16.80;;;;;;;8.99;100.00;80077.59;5074175;28;20180;-62
2023/01/05 02:39:51;;;;;;;18.47;16.07;;;;;;;9.16;100.00;78795.25;5074345;28;20603;-61
2023/01/05 02:42:22;;;;;;;17.43;15.63;;;;;;;9.17;100.00;77492.00;5074214;28;20196;-61
2023/01/05 02:44:49;;;;;;;18.43;16.30;;;;;;;9.14;100.00;77487.34;5074323;28;20205;-61
2023/01/05 02:47:38;;;;;;;23.20;17.23;;;;;;;9.32;100.00;78489.75;5074532;28;20553;-62
2023/01/05 02:50:09;;;;;;;22.70;18.37;;;;;;;9.40;100.00;82421.03;5074129;28;20196;-61
2023/01/05 02:52:40;;;;;;;25.37;18.73;;;;;;;9.37;100.00;87322.63;5074396;28;20193;-60
2023/01/05 02:55:11;;;;;;;30.90;21.47;;;;;;;9.33;100.00;92884.63;5073958;28;20191;-61
2023/01/05 02:57:50;;;;;;;36.10;22.87;;;;;;;9.44;100.00;94541.75;5074194;28;20189;-61
2023/01/05 03:00:21;;;;;;;32.87;22.53;;;;;;;9.43;100.00;94868.13;5074204;28;20586;-61
2023/01/05 03:02:53;;;;;;;31.17;23.43;;;;;;;9.38;100.00;92236.97;5073830;28;20185;-61
2023/01/05 03:05:26;;;;;;;31.30;22.83;;;;;;;9.50;100.00;91928.13;5073768;28;20204;-61
2023/01/05 03:08:06;;;;;;;46.47;24.30;;;;;;;9.39;100.00;93221.19;5073687;28;20189;-61
2023/01/05 03:13:42;;;;;;;39.73;23.00;;;;;;;9.43;100.00;96508.69;5073715;28;20277;-61
2023/01/05 03:16:12;;;;;;;36.40;23.50;;;;;;;9.37;100.00;92890.19;5073497;28;20286;-61
2023/01/05 03:21:23;;;;;;;36.30;23.53;;;;;;;9.44;100.00;90280.25;5072478;28;20636;-61
2023/01/05 03:37:48;;;;;;;34.47;23.17;;;;;;;9.30;100.00;88948.00;5073510;28;20172;-61
2023/01/05 03:40:21;;;;;;;39.27;23.00;;;;;;;9.11;100.00;86956.63;5073165;28;20216;-61
2023/01/05 03:42:48;;;;;;;41.13;22.63;;;;;;;9.28;100.00;87963.72;5073133;28;20280;-61
2023/01/05 03:45:17;;;;;;;32.40;22.73;;;;;;;9.26;100.00;86323.88;5072817;28;20212;-60
2023/01/05 03:47:44;;;;;;;38.83;23.20;;;;;;;9.18;100.00;80756.75;5073061;28;20584;-60
2023/01/05 03:50:13;;;;;;;41.63;23.10;;;;;;;9.18;100.00;79124.31;5072993;28;20202;-61
2023/01/05 03:52:40;;;;;;;33.70;22.77;;;;;;;8.89;100.00;79738.19;5073011;28;20185;-61
2023/01/05 03:55:07;;;;;;;35.53;23.87;;;;;;;9.30;100.00;81752.69;5072827;28;20185;-60
2023/01/05 03:57:34;;;;;;;35.47;23.57;;;;;;;9.32;100.00;82736.56;5072772;28;20189;-60
2023/01/05 04:00:01;;;;;;;37.70;23.73;;;;;;;9.33;100.00;82737.97;5073083;28;20570;-61
2023/01/05 04:02:28;;;;;;;45.57;25.07;;;;;;;9.34;100.00;83392.38;5073067;28;20630;-60
2023/01/05 04:04:55;;;;;;;33.63;24.00;;;;;;;9.31;100.00;83388.84;5072687;28;20204;-60
2023/01/05 04:07:23;;;;;;;41.23;24.10;;;;;;;9.30;100.00;80446.75;5072714;28;20555;-61
2023/01/05 04:09:50;;;;;;;34.47;23.87;;;;;;;9.26;100.00;78155.97;5073024;28;20654;-61
2023/01/05 04:12:16;;;;;;;40.30;25.17;;;;;;;9.27;100.00;77503.97;5072592;28;20195;-61
2023/01/05 04:14:43;;;;;;;49.07;26.40;;;;;;;9.23;100.00;75216.13;5072567;28;20191;-60
2023/01/05 04:17:10;;;;;;;40.67;23.77;;;;;;;9.24;100.00;74239.38;5072723;28;20181;-60
2023/01/05 04:19:37;;;;;;;38.40;24.17;;;;;;;9.34;100.00;74252.13;5072406;28;20189;-60
2023/01/05 04:22:04;;;;;;;37.87;25.33;;;;;;;9.33;100.00;75229.06;5072344;28;20185;-62
2023/01/05 04:24:32;;;;;;;43.90;25.73;;;;;;;9.29;100.00;74897.81;5072462;28;20223;-61
2023/01/05 04:26:59;;;;;;;42.23;25.30;;;;;;;9.32;100.00;74575.59;5072224;28;20188;-62
2023/01/05 04:29:26;;;;;;;40.80;24.57;;;;;;;9.32;100.00;73271.03;5072586;28;20195;-61
2023/01/05 04:31:52;;;;;;;35.07;24.23;;;;;;;9.28;100.00;71636.88;5072537;28;20565;-60
2023/01/05 04:34:20;;;;;;;42.80;24.67;;;;;;;9.26;100.00;69355.00;5054097;28;20240;-60
2023/01/05 04:36:48;;;;;;;30.57;24.00;;;;;;;9.16;100.00;65115.19;5072045;28;20188;-63
2023/01/05 04:39:15;;;;;;;40.07;25.30;;;;;;;9.18;100.00;62517.84;5072104;28;20189;-61
2023/01/05 04:41:43;;;;;;;41.37;25.53;;;;;;;9.14;100.00;59267.00;5072296;28;20655;-60
2023/01/05 04:44:10;;;;;;;44.37;25.10;;;;;;;9.11;100.00;53104.41;5071800;28;20189;-61
2023/01/05 04:46:37;;;;;;;37.50;24.83;;;;;;;9.10;100.00;49543.06;5071942;28;20192;-61
2023/01/05 04:49:04;;;;;;;40.77;25.03;;;;;;;9.13;100.00;46634.44;5072167;28;20627;-62
2023/01/05 04:51:31;;;;;;;41.37;25.67;;;;;;;9.18;100.00;46315.63;5072104;28;20573;-60
2023/01/05 04:53:58;;;;;;;37.97;25.60;;;;;;;9.22;100.00;47611.50;5071847;28;20177;-60
2023/01/05 04:56:25;;;;;;;41.13;25.40;;;;;;;9.18;100.00;47609.00;5071319;28;20211;-60
2023/01/05 04:58:53;;;;;;;37.57;25.17;;;;;;;8.95;100.00;47589.41;5071589;28;20231;-60
2023/01/05 05:01:20;;;;;;;43.07;27.50;;;;;;;9.11;100.00;45986.31;5071566;28;20191;-61
2023/01/05 05:03:47;;;;;;;47.63;26.70;;;;;;;9.13;100.00;44049.16;5072028;28;20188;-61
2023/01/05 05:06:13;;;;;;;41.83;26.67;;;;;;;9.13;100.00;43080.19;5054006;28;20667;-61
2023/01/05 05:08:40;;;;;;;41.17;27.60;;;;;;;8.96;100.00;42422.03;5071521;28;20189;-60
2023/01/05 05:11:07;;;;;;;44.80;27.57;;;;;;;9.16;100.00;41145.66;5071461;28;20241;-61
2023/01/05 05:13:34;;;;;;;42.90;27.40;;;;;;;9.17;100.00;42437.38;5071429;28;20275;-61
2023/01/05 05:16:02;;;;;;;44.90;27.80;;;;;;;9.20;100.00;44377.69;5071372;28;20188;-61
2023/01/05 05:18:29;;;;;;;48.77;27.33;;;;;;;8.75;100.00;43374.09;5071266;28;20196;-61
2023/01/05 05:20:56;;;;;;;43.83;26.97;;;;;;;9.14;100.00;41789.44;5071578;28;20188;-61
2023/01/05 05:23:23;;;;;;;47.03;27.70;;;;;;;9.16;100.00;41468.09;5071274;28;20180;-60
2023/01/05 05:25:51;;;;;;;48.30;27.60;;;;;;;9.01;100.00;41779.84;5071723;28;20205;-60
2023/01/05 05:28:17;;;;;;;51.50;29.33;;;;;;;9.20;100.00;42439.25;5071156;28;20203;-61
2023/01/05 05:30:44;;;;;;;51.00;29.30;;;;;;;9.25;100.00;42443.38;5071197;28;20196;-60
2023/01/05 05:33:12;;;;;;;55.33;29.63;;;;;;;9.23;100.00;43410.81;5071080;28;20627;-60
2023/01/05 05:35:39;;;;;;;52.90;29.47;;;;;;;9.25;100.00;41151.50;5071508;28;20185;-61
2023/01/05 05:38:06;;;;;;;53.40;30.87;;;;;;;9.28;100.00;39540.25;5071471;28;20189;-60
2023/01/05 05:40:33;;;;;;;55.67;31.20;;;;;;;9.27;100.00;36958.81;5071281;28;20192;-62
2023/01/05 05:43:00;;;;;;;47.27;30.17;;;;;;;9.25;100.00;35023.88;5071426;28;20196;-60
2023/01/05 05:45:26;;;;;;;61.13;31.70;;;;;;;9.24;100.00;33734.63;5070920;28;20204;-61
2023/01/05 05:47:53;;;;;;;56.70;31.00;;;;;;;9.17;100.00;33408.34;5071332;28;20211;-61
2023/01/05 05:50:21;;;;;;;51.50;31.23;;;;;;;8.96;100.00;32430.41;5070745;28;20205;-62
2023/01/05 05:52:48;;;;;;;50.30;32.87;;;;;;;8.87;100.00;28244.34;5071334;28;20532;-60
2023/01/05 05:55:15;;;;;;;56.17;32.57;;;;;;;8.67;100.00;20853.19;5071560;28;20235;-61
2023/01/05 05:57:42;;;;;;;64.40;33.73;;;;;;;8.94;100.00;17337.94;5071087;28;20185;-61
2023/01/05 06:00:10;;;;;;;58.60;33.63;;;;;;;9.17;100.00;16063.78;5070838;28;20223;-61
2023/01/05 06:02:38;;;;;;;58.07;32.10;;;;;;;9.20;100.00;17346.31;5071110;28;20571;-61
2023/01/05 06:05:06;;;;;;;51.13;31.47;;;;;;;9.27;100.00;18631.03;5071089;28;20621;-61
2023/01/05 06:07:34;;;;;;;47.87;31.07;;;;;;;9.18;100.00;21514.97;5073788;28;20620;-60
2023/01/05 06:10:01;;;;;;;50.57;29.90;;;;;;;9.26;100.00;20876.19;5074893;28;20196;-60
2023/01/05 06:12:28;;;;;;;56.33;30.67;;;;;;;9.38;100.00;22485.75;5074944;28;20707;-61
2023/01/05 06:14:55;;;;;;;50.60;30.70;;;;;;;9.42;100.00;24093.38;5075151;28;20559;-62
2023/01/05 06:17:22;;;;;;;53.17;30.87;;;;;;;9.42;100.00;25057.53;5074717;28;20189;-61
2023/01/05 06:19:49;;;;;;;52.43;30.17;;;;;;;9.46;100.00;26666.66;5074718;28;20220;-61
2023/01/05 06:22:15;;;;;;;45.43;30.20;;;;;;;9.55;100.00;28922.88;5074634;28;20187;-61
2023/01/05 06:24:44;;;;;;;49.03;29.73;;;;;;;9.52;100.00;30852.56;5074950;28;20523;-61
2023/01/05 06:27:11;;;;;;;46.87;30.43;;;;;;;9.60;100.00;33433.81;5074476;28;20188;-62
2023/01/05 06:29:38;;;;;;;60.70;31.47;;;;;;;9.63;100.00;35692.31;5074811;28;20189;-61
2023/01/05 06:32:05;;;;;;;52.80;31.73;;;;;;;9.74;100.00;37634.84;5074691;28;20185;-61
2023/01/05 06:34:32;;;;;;;70.23;36.00;;;;;;;9.79;100.00;38606.94;5074419;28;20251;-61
2023/01/05 06:36:58;;;;;;;71.93;37.20;;;;;;;9.92;100.00;42169.91;5074375;28;20191;-61
2023/01/05 06:39:25;;;;;;;64.80;37.27;;;;;;;10.09;100.00;45740.97;5074493;28;20189;-61
2023/01/05 06:41:54;;;;;;;72.33;40.03;;;;;;;10.06;100.00;50273.13;5074366;28;20250;-61
2023/01/05 06:44:20;;;;;;;68.50;39.40;;;;;;;10.18;100.00;54500.66;5074736;28;20189;-61
2023/01/05 06:46:47;;;;;;;58.30;35.80;;;;;;;10.24;100.00;60029.31;5074205;28;20582;-61
2023/01/05 06:49:14;;;;;;;52.80;33.67;;;;;;;10.23;100.00;61328.53;5074267;28;20216;-62
2023/01/05 06:51:41;;;;;;;63.10;34.03;;;;;;;10.24;100.00;60354.47;5077441;28;20224;-62
2023/01/05 06:54:08;;;;;;;50.33;32.03;;;;;;;10.40;100.00;63950.41;5094541;28;20183;-61
2023/01/05 06:56:35;;;;;;;45.60;30.10;;;;;;;10.56;100.00;68530.19;5094090;28;20184;-62
2023/01/05 06:59:04;;;;;;;51.10;30.77;;;;;;;10.62;100.00;73433.72;5093922;28;20184;-58
2023/01/05 07:01:31;;;;;;;72.23;44.13;;;;;;;10.70;100.00;77365.41;5094213;28;20192;-61
2023/01/05 07:03:58;;;;;;;51.67;31.13;;;;;;;10.69;100.00;88173.94;5093871;28;20192;-61
2023/01/05 07:06:24;;;;;;;46.00;28.83;;;;;;;10.88;100.00;98719.09;5093762;28;20204;-62
2023/01/05 07:08:51;;;;;;;53.63;30.03;;;;;;;10.92;100.00;106305.31;5093598;28;20199;-61
2023/01/05 07:11:18;;;;;;;43.83;28.73;;;;;;;10.91;100.00;114230.00;5093490;28;20199;-61
2023/01/05 07:13:48;;;;;;;48.10;29.20;;;;;;;10.80;100.00;113548.50;5093570;28;20184;-60
2023/01/05 07:16:17;;;;;;;44.00;28.60;;;;;;;10.98;100.00;114243.66;5093564;28;20677;-61
2023/01/05 07:18:44;;;;;;;43.23;27.20;;;;;;;11.03;100.00;125600.06;5092290;28;20200;-61
2023/01/05 07:21:11;;;;;;;57.30;28.17;;;;;;;11.19;100.00;122564.25;5093473;28;20192;-61
2023/01/05 07:23:38;;;;;;;42.80;26.73;;;;;;;11.36;100.00;148115.16;5093087;28;20249;-62
2023/01/05 07:26:05;;;;;;;43.43;26.33;;;;;;;11.66;100.00;148971.50;5093180;28;20210;-62
2023/01/05 07:28:32;;;;;;;41.43;25.50;;;;;;;12.64;100.00;149215.81;5092947;28;20234;-61
2023/01/05 07:30:59;;;;;;;39.17;24.93;;;;;;;13.43;100.00;149413.41;5089131;28;20192;-62
2023/01/05 07:33:27;;;;;;;40.47;25.40;;;;;;;14.12;100.00;149587.03;5093317;28;20235;-62
2023/01/05 07:35:54;;;;;;;42.80;24.83;;;;;;;14.88;100.00;149778.53;5093384;28;20181;-61
2023/01/05 07:38:21;;;;;;;32.13;23.83;;;;;;;15.44;100.00;149919.38;5093205;28;20188;-62
2023/01/05 07:40:48;;;;;;;36.67;25.80;;;;;;;15.65;100.00;149971.44;5093289;28;20286;-61
2023/01/05 07:43:16;;;;;;;35.93;24.23;;;;;;;16.02;100.00;150062.81;5093022;28;20189;-62
2023/01/05 07:45:43;;;;;;;36.57;24.50;;;;;;;15.98;100.00;150055.19;5075116;28;20690;-62
2023/01/05 07:48:10;;;;;;;34.10;24.23;;;;;;;16.23;100.00;150117.41;5075265;28;20184;-62
2023/01/05 07:50:38;;;;;;;28.23;23.43;;;;;;;16.17;100.00;150102.13;5093435;28;20184;-63
2023/01/05 07:53:05;;;;;;;27.20;23.30;;;;;;;16.16;100.00;150098.38;5092799;28;20262;-62
2023/01/05 07:55:32;;;;;;;33.80;24.67;;;;;;;16.09;100.00;150080.56;5092816;28;20184;-62
2023/01/05 07:57:59;;;;;;;38.67;27.27;;;;;;;15.95;100.00;150046.31;5093022;28;20674;-63
2023/01/05 08:00:26;;;;;;;37.43;26.73;;;;;;;16.09;100.00;150080.56;5093108;28;20615;-63
2023/01/05 08:02:52;;;;;;;39.47;28.07;;;;;;;15.74;100.00;149993.00;5092970;28;20187;-62
2023/01/05 08:05:20;;;;;;;44.07;28.87;;;;;;;15.49;100.00;149932.00;5092633;28;20200;-61
2023/01/05 08:07:49;;;;;;;41.57;27.87;;;;;;;16.22;100.00;150114.84;5092683;28;20192;-62
2023/01/05 08:10:31;;;;;;;49.30;31.53;;;;;;;17.10;100.00;150334.63;5092598;28;20188;-62
2023/01/05 08:15:47;;;;;;;37.93;25.53;;;;;;;17.46;100.00;150424.81;5092806;28;20175;-62
2023/01/05 08:18:18;;;;;;;24.77;19.27;;;;;;;17.42;100.00;150414.66;5092997;28;20277;-62
2023/01/05 08:20:50;;;;;;;19.93;16.13;;;;;;;17.65;100.00;150474.41;5094074;28;20274;-62
2023/01/05 08:23:19;;;;;;;23.73;17.17;;;;;;;17.83;100.00;150517.63;5092563;28;20626;-62
2023/01/05 08:25:46;;;;;;;22.03;16.57;;;;;;;18.11;100.00;150590.13;5092686;28;20204;-62
2023/01/05 08:28:13;;;;;;;16.77;15.23;;;;;;;18.28;100.00;150632.06;5091812;28;20184;-63
2023/01/05 08:30:42;;;;;;;27.70;16.47;;;;;;;18.64;100.00;150723.66;5091774;28;20191;-62
2023/01/05 08:33:09;;;;;;;26.37;16.50;;;;;;;18.84;100.00;150773.25;5076355;28;20230;-62
2023/01/05 08:35:40;;;;;;;21.17;15.53;;;;;;;18.88;100.00;150782.19;5092364;28;20195;-62
2023/01/05 08:38:07;;;;;;;16.30;14.60;;;;;;;18.56;100.00;150703.31;5092627;28;20192;-62
2023/01/05 08:40:36;;;;;;;22.03;16.67;;;;;;;18.70;100.00;150738.94;5087780;28;20191;-62
2023/01/05 08:43:03;;;;;;;17.90;16.17;;;;;;;19.03;100.00;150821.63;5092369;28;20649;-62
2023/01/05 08:45:32;;;;;;;31.10;17.83;;;;;;;18.86;100.00;150777.09;5091533;28;20192;-62
2023/01/05 08:47:59;;;;;;;27.88;17.60;;;;;;;18.78;100.00;150756.75;5073734;28;20213;-65
2023/01/05 08:50:26;;;;;;;19.73;15.43;;;;;;;18.86;100.00;150777.09;5091771;28;20611;-62
2023/01/05 08:52:53;;;;;;;26.23;17.50;;;;;;;19.12;100.00;150843.25;5073790;28;20195;-62
2023/01/05 08:55:20;;;;;;;21.45;16.15;;;;;;;19.43;97.99;150922.22;5091511;28;20180;-63
2023/01/05 08:57:48;;;;;;;21.77;17.20;;;;;;;19.93;94.79;151046.94;5092061;28;20551;-63
2023/01/05 09:00:16;;;;;;;25.98;17.40;;;;;;;19.64;96.21;150973.09;5092006;28;20619;-62
2023/01/05 09:02:43;;;;;;;16.30;14.88;;;;;;;19.80;93.40;151013.81;5091847;28;20188;-62
2023/01/05 09:05:10;;;;;;;17.10;15.50;;;;;;;19.78;92.46;151008.72;5092064;28;20188;-62
2023/01/05 09:07:37;;;;;;;17.75;14.15;;;;;;;20.00;93.56;151064.72;5073579;28;20258;-62
2023/01/05 09:10:06;;;;;;;21.20;16.10;;;;;;;19.95;94.33;151053.28;5073698;28;20192;-63
2023/01/05 09:12:34;;;;;;;16.73;15.02;;;;;;;20.14;91.77;151099.13;5091640;28;20642;-63
2023/01/05 09:15:03;;;;;;;16.92;15.20;;;;;;;20.31;91.18;151142.47;5091871;28;20546;-63
2023/01/05 09:17:30;;;;;;;16.60;14.98;;;;;;;20.23;90.60;151123.31;5091566;28;20196;-62
2023/01/05 09:19:57;;;;;;;17.45;15.82;;;;;;;20.09;90.33;151087.66;5091905;28;20194;-62
2023/01/05 09:22:23;;;;;;;17.15;15.40;;;;;;;20.03;91.23;151073.63;5091496;28;20283;-62
2023/01/05 09:24:50;;;;;;;17.92;16.15;;;;;;;20.33;88.61;151148.81;5092072;28;20619;-62
2023/01/05 09:27:17;;;;;;;17.75;16.05;;;;;;;20.51;88.29;151194.66;5091825;28;20218;-61
2023/01/05 09:29:44;;;;;;;18.77;17.02;;;;;;;20.79;84.35;151263.47;5091847;28;20275;-62
2023/01/05 09:32:12;;;;;;;18.23;16.38;;;;;;;20.73;84.12;151248.16;5091232;28;20583;-62
2023/01/05 09:34:39;;;;;;;19.35;16.08;;;;;;;21.67;78.81;151485.22;5090856;28;20267;-62
2023/01/05 09:37:06;;;;;;;17.42;15.98;;;;;;;22.03;75.29;151575.75;5091656;28;20180;-62
2023/01/05 09:39:33;;;;;;;18.30;16.38;;;;;;;21.87;75.99;151536.19;5091093;28;20184;-63
2023/01/05 09:42:03;;;;;;;23.17;17.38;;;;;;;21.91;75.22;151546.38;5091008;28;20583;-62
2023/01/05 09:44:31;;;;;;;22.13;16.58;;;;;;;21.75;77.11;151505.59;5090909;28;20184;-62
2023/01/05 09:47:03;;;;;;;17.67;16.02;;;;;;;21.73;77.34;151501.75;5091274;28;20646;-62
2023/01/05 09:49:34;;;;;;;18.33;16.70;;;;;;;22.39;71.96;151666.28;5090796;28;20188;-62
2023/01/05 09:52:07;;;;;;;20.05;16.50;;;;;;;22.70;70.73;151746.66;5091229;28;20188;-63
2023/01/05 09:54:35;;;;;;;19.00;17.20;;;;;;;23.14;68.04;151857.66;5091263;28;20279;-63
2023/01/05 09:57:03;;;;;;;19.20;16.05;;;;;;;22.86;67.69;151784.94;5090855;28;20191;-62
2023/01/05 09:59:34;;;;;;;18.83;17.13;;;;;;;23.10;66.94;151847.44;5091224;28;20188;-62
2023/01/05 10:02:03;;;;;;;18.05;16.35;;;;;;;22.20;70.34;151620.38;5091335;28;20188;-62
2023/01/05 10:04:33;;;;;;;18.80;16.95;;;;;;;21.36;77.17;151408.72;5091050;28;20647;-63
2023/01/05 10:07:06;;;;;;;20.30;17.90;;;;;;;21.47;75.97;151434.25;5090801;28;20247;-63
2023/01/05 10:09:37;;;;;;;16.52;14.82;;;;;;;21.69;73.36;151491.56;5091133;28;20271;-63
2023/01/05 10:15:05;;;;;;;14.40;13.27;;;;;;;21.41;76.25;151420.22;5071148;28;20183;-63
2023/01/05 10:17:35;;;;;;;14.13;13.23;;;;;;;21.58;71.95;151463.53;5069629;28;20201;-62
2023/01/05 10:20:14;;;;;;;14.90;12.68;;;;;;;21.56;71.51;151457.13;5070556;28;20191;-61
2023/01/05 10:22:50;;;;;;;13.98;12.45;;;;;;;21.68;69.91;151489.03;5070559;28;20184;-62
2023/01/05 10:25:21;;;;;;;13.40;12.27;;;;;;;21.86;71.14;151533.63;5071097;28;20623;-62
2023/01/05 10:27:53;;;;;;;12.80;11.80;;;;;;;22.10;68.70;151594.91;5070399;28;20205;-63
2023/01/05 10:30:23;;;;;;;12.93;11.95;;;;;;;21.20;75.21;151367.97;5070384;28;20188;-62
2023/01/05 10:32:59;;;;;;;12.73;11.88;;;;;;;22.00;70.31;151569.38;5070551;28;20233;-62
2023/01/05 10:35:43;;;;;;;12.20;11.32;;;;;;;22.02;69.44;151574.50;5070735;28;20184;-63
2023/01/05 10:38:22;;;;;;;14.00;12.77;;;;;;;22.94;65.74;151805.34;5070507;28;20197;-64
2023/01/05 10:41:02;;;;;;;12.80;11.88;;;;;;;22.28;68.38;151640.75;5070384;28;20200;-63
2023/01/05 10:43:49;;;;;;;14.07;12.30;;;;;;;22.30;67.15;151645.88;5070905;28;20200;-64
2023/01/05 10:46:17;;;;;;;14.20;12.60;;;;;;;21.90;70.35;151543.81;5070743;28;20242;-64
2023/01/05 10:48:44;;;;;;;12.93;11.73;;;;;;;22.08;71.37;151589.78;5070510;28;20188;-63
2023/01/05 10:51:13;;;;;;;12.45;11.38;;;;;;;22.81;67.50;151772.19;5070293;28;20265;-62
2023/01/05 10:53:42;;;;;;;15.10;12.63;;;;;;;23.42;63.64;151927.84;5071469;28;20185;-64
2023/01/05 10:56:14;;;;;;;13.77;12.00;;;;;;;23.21;63.42;151875.50;5074193;28;20261;-65
2023/01/05 10:58:43;;;;;;;12.70;11.65;;;;;;;23.85;61.45;152036.34;5074121;28;20516;-63
2023/01/05 11:01:24;;;;;;;13.18;12.18;;;;;;;23.90;59.07;152049.13;5073465;28;20202;-65
2023/01/05 11:03:56;;;;;;;17.17;11.77;;;;;;;24.34;56.79;152160.25;5073925;28;20674;-64
2023/01/05 11:06:27;;;;;;;12.32;11.25;;;;;;;24.26;57.76;152138.56;5073851;28;20185;-64
2023/01/05 11:08:55;;;;;;;14.50;13.05;;;;;;;24.59;56.31;152222.81;5072444;28;20181;-63
2023/01/05 11:11:24;;;;;;;14.43;13.25;;;;;;;23.93;57.81;152056.75;5073268;28;20658;-64
2023/01/05 11:13:55;;;;;;;13.38;12.23;;;;;;;22.35;64.86;151656.09;5073287;28;20289;-64
2023/01/05 11:16:26;;;;;;;13.65;12.57;;;;;;;22.52;64.59;151699.44;5073289;28;20181;-65
2023/01/05 11:18:55;;;;;;;13.57;12.52;;;;;;;21.99;67.70;151566.81;5073177;28;20188;-64
2023/01/05 11:21:25;;;;;;;13.18;11.95;;;;;;;20.78;74.97;151260.91;5073158;28;20181;-63
2023/01/05 11:23:53;;;;;;;13.63;12.23;;;;;;;20.18;80.90;151110.59;5073454;28;20188;-64
2023/01/05 11:26:32;;;;;;;13.57;12.55;;;;;;;20.10;83.65;151090.22;5075891;28;20195;-65
2023/01/05 11:29:02;;;;;;;14.13;12.65;;;;;;;19.79;87.15;151011.28;5073309;28;20188;-64
2023/01/05 11:31:34;;;;;;;20.55;14.27;;;;;;;19.51;89.50;150942.56;5073875;28;20185;-64
2023/01/05 11:34:07;;;;;;;15.90;14.70;;;;;;;19.18;93.48;150858.50;5074568;28;20223;-63
2023/01/05 11:36:36;;;;;;;15.68;14.38;;;;;;;18.81;96.75;150765.63;5073475;28;20185;-63
2023/01/05 11:39:03;;;;;;;16.05;14.45;;;;;;;18.33;100.00;150643.53;5071936;28;20189;-64
2023/01/05 11:41:30;;;;;;;17.00;15.17;;;;;;;18.20;100.00;150611.75;5072940;28;20283;-64
2023/01/05 11:43:59;;;;;;;18.47;15.83;;;;;;;18.14;100.00;150597.75;5072988;28;20181;-63
2023/01/05 11:46:39;;;;;;;15.82;14.43;;;;;;;17.75;100.00;150499.84;5072749;28;20280;-63
2023/01/05 11:49:10;;;;;;;19.97;14.83;;;;;;;17.55;100.00;150448.97;5073063;28;20592;-63
2023/01/05 11:51:40;;;;;;;15.77;14.27;;;;;;;16.95;100.00;150296.50;5073225;28;20211;-63
2023/01/05 11:54:31;;;;;;;14.57;13.40;;;;;;;16.55;100.00;150196.13;5072903;28;20173;-62
2023/01/05 11:57:12;;;;;;;15.97;12.90;;;;;;;16.10;100.00;150084.38;5072945;28;20187;-63
2023/01/05 11:59:39;;;;;;;15.23;13.80;;;;;;;15.43;100.00;149916.81;5072968;28;20228;-63